Silver Cloud — C6MQ5 — position and weather

sailwx.info

Track history (hours):
 
Tides and Currents Weather Stations Pressure Air Temp Water Temp Dewpoint Dewpoint Depression Visibility Wind Speed Wind Dir Waves Ship Positions

Silver Cloud

Operator: V Ships Leisure SAM

Last reported at 2015-May-24 23:30 UTC. Time now 2015-May-25 15:37 UTC.
Position N 36°28' W 002°46'.

Length 155 m; draft 5.6 m.

Type: Passenger vessel. MMSI: 309027000.

Date/timePositionNaut miles runAvg speedWind from/ knotsBaromVisibWave heightAir tempDewpointWater temp
2015-May-24 23:30N 36°28' W 002°46'1415.0
2015-May-24 22:34N 36°26' W 002°29'8413.2
2015-May-24 16:14N 37°23' W 001°11'1214.5
2015-May-24 15:26N 37°32' W 001°02'5 0.5
2015-May-24 05:29N 37°36' W 000°59'6 6.1
2015-May-24 04:30N 37°30' W 000°56'1212.5
2015-May-24 03:33N 37°31' W 000°41'1212.1
2015-May-24 02:33N 37°39' W 000°30'1312.8
2015-May-24 01:33N 37°50' W 000°21'1312.5
2015-May-24 00:33N 38°00' W 000°12'1312.7
2015-May-23 23:29N 38°11' W 000°03'1212.4
2015-May-23 22:29N 38°22' E 000°06'1312.8
2015-May-23 21:28N 38°33' E 000°15'1511.4
2015-May-23 20:08N 38°47' E 000°22'4612.6
2015-May-23 16:27N 39°23' W 000°14'6 6.1
2015-May-23 15:32N 39°27' W 000°19'0 0.0
2015-May-23 14:32N 39°27' W 000°19'0 0.0
2015-May-23 13:32N 39°27' W 000°19'0 0.0
2015-May-23 12:32N 39°27' W 000°19'0 0.0
2015-May-23 11:32N 39°27' W 000°19'0 0.0
2015-May-23 10:32N 39°27' W 000°19'0 0.0
2015-May-23 09:32N 39°27' W 000°19'0 0.0
2015-May-23 08:32N 39°27' W 000°19'0 0.0
2015-May-23 07:32N 39°27' W 000°19'0 0.0
2015-May-23 06:32N 39°27' W 000°19'0 0.1
2015-May-23 05:34N 39°27' W 000°19'7 6.4
2015-May-23 04:33N 39°27' W 000°11'  
2015-May-20 22:04N 42°56' E 005°52'77 4.9
2015-May-20 06:18N 43°28' E 007°28'1212.1
2015-May-20 05:21N 43°40' E 007°27'3 4.4
2015-May-20 04:33N 43°43' E 007°25'0 0.0
2015-May-20 03:33N 43°43' E 007°25'0 0.0
2015-May-20 02:33N 43°43' E 007°25'0 0.0
2015-May-20 01:33N 43°43' E 007°25'0 0.0
2015-May-20 00:27N 43°43' E 007°25'0 0.0
2015-May-19 23:27N 43°43' E 007°25'0 0.0
2015-May-19 22:21N 43°43' E 007°25'0 0.0
2015-May-19 21:21N 43°43' E 007°25'0 0.0
2015-May-19 20:33N 43°43' E 007°25'0 0.0
2015-May-19 19:21N 43°43' E 007°25'0 0.0
2015-May-19 16:33N 43°43' E 007°25'0 0.0
2015-May-19 15:21N 43°43' E 007°25'0 0.0
2015-May-19 14:33N 43°43' E 007°25'0 0.0
2015-May-19 13:15N 43°43' E 007°25'0 0.0
2015-May-19 12:15N 43°43' E 007°25'0 0.0
2015-May-19 11:33N 43°43' E 007°25'0 0.0
2015-May-19 10:33N 43°43' E 007°25'0 0.0
2015-May-19 09:33N 43°43' E 007°25'0 0.0
2015-May-19 08:33N 43°43' E 007°25'0 0.0
2015-May-19 07:33N 43°43' E 007°25'0 0.0
2015-May-19 06:33N 43°43' E 007°25'0 0.0
2015-May-19 05:22N 43°43' E 007°25'7 3.8
2015-May-19 03:32N 43°36' E 007°27'3 2.8
2015-May-19 02:33N 43°36' E 007°24'3 3.0
2015-May-19 01:33N 43°34' E 007°21'3 2.6
2015-May-19 00:33N 43°32' E 007°19'3 3.3
2015-May-18 23:33N 43°35' E 007°18'3 3.1
2015-May-18 22:34N 43°38' E 007°17'4 3.8
2015-May-18 21:33N 43°42' E 007°17'0 0.0
2015-May-18 20:29N 43°42' E 007°17'0 0.0
2015-May-18 19:23N 43°42' E 007°17'0 0.0
2015-May-18 18:29N 43°42' E 007°17'0 0.0
2015-May-18 17:29N 43°42' E 007°17'0 0.0
2015-May-18 16:29N 43°42' E 007°17'0 0.0
2015-May-18 15:29N 43°42' E 007°17'0 0.0
2015-May-18 14:23N 43°42' E 007°17'0 0.0
2015-May-18 13:29N 43°42' E 007°17'0 0.0
2015-May-18 12:29N 43°42' E 007°17'0 0.0
2015-May-18 11:29N 43°42' E 007°17'0 0.0
2015-May-18 10:29N 43°42' E 007°17'0 0.0
2015-May-18 09:29N 43°42' E 007°17'0 0.0
2015-May-18 08:29N 43°42' E 007°17'0 0.0
2015-May-18 07:29N 43°42' E 007°17'0 0.0
2015-May-18 06:29N 43°42' E 007°17'0 0.0
2015-May-18 05:23N 43°42' E 007°17'3 3.1
2015-May-18 04:33N 43°39' E 007°18'6 5.9
2015-May-18 03:33N 43°34' E 007°23'4 3.6
2015-May-18 02:33N 43°31' E 007°23'4 4.2
2015-May-18 01:31N 43°27' E 007°20'5 4.6
2015-May-18 00:32N 43°26' E 007°14'4 4.4
2015-May-17 23:33N 43°24' E 007°08'4 3.9
2015-May-17 22:29N 43°24' E 007°03'6 6.1
2015-May-17 21:32N 43°30' E 006°60'3 1.3
2015-May-17 19:32N 43°32' E 007°01'0 0.0
2015-May-17 18:14N 43°32' E 007°01'0 0.0
2015-May-17 15:20N 43°32' E 007°01'0 0.0
2015-May-17 13:26N 43°32' E 007°01'0 0.0
2015-May-17 11:26N 43°32' E 007°01'0 0.0
2015-May-17 10:08N 43°32' E 007°01'0 0.0
2015-May-17 05:32N 43°32' E 007°01'9 9.3
2015-May-17 04:33N 43°29' E 007°13'5416.4
2015-May-17 01:15N 43°52' E 008°21'1216.9
2015-May-17 00:33N 43°58' E 008°35'1716.9
2015-May-16 23:33N 44°07' E 008°55'1716.5
2015-May-16 22:33N 44°15' E 009°15'5 2.4
2015-May-16 20:19N 44°20' E 009°14'0 0.0
2015-May-16 18:16N 44°20' E 009°14'0 0.0
2015-May-16 06:10N 44°20' E 009°14'0 0.0
2015-May-16 05:28N 44°20' E 009°14'3 3.0
2015-May-16 04:33N 44°18' E 009°17'1515.4
2015-May-16 03:33N 44°03' E 009°22'1616.1
2015-May-16 02:33N 43°47' E 009°26'1616.0
2015-May-16 01:33N 43°32' E 009°31'1616.0
2015-May-16 00:33N 43°16' E 009°35'3015.0
2015-May-15 22:33N 42°48' E 009°50'1915.9
2015-May-15 21:19N 42°39' E 010°14'2016.0
2015-May-15 20:05N 42°25' E 010°33'  
Track history (hours):
 
Tides and Currents Weather Stations Pressure Air Temp Water Temp Dewpoint Dewpoint Depression Visibility Wind Speed Wind Dir Waves Ship Positions

Silver Cloud

Operator: V Ships Leisure SAM

Last reported at 2015-May-24 23:30 UTC. Time now 2015-May-25 15:37 UTC.
Position N 36°28' W 002°46'.

Length 155 m; draft 5.6 m.

Type: Passenger vessel. MMSI: 309027000.

Date/timePositionNaut miles runAvg speedWind from/ knotsBaromVisibWave heightAir tempDewpointWater temp
2015-May-24 23:30N 36°28' W 002°46'1415.0
2015-May-24 22:34N 36°26' W 002°29'8413.2
2015-May-24 16:14N 37°23' W 001°11'1214.5
2015-May-24 15:26N 37°32' W 001°02'5 0.5
2015-May-24 05:29N 37°36' W 000°59'6 6.1
2015-May-24 04:30N 37°30' W 000°56'1212.5
2015-May-24 03:33N 37°31' W 000°41'1212.1
2015-May-24 02:33N 37°39' W 000°30'1312.8
2015-May-24 01:33N 37°50' W 000°21'1312.5
2015-May-24 00:33N 38°00' W 000°12'1312.7
2015-May-23 23:29N 38°11' W 000°03'1212.4
2015-May-23 22:29N 38°22' E 000°06'1312.8
2015-May-23 21:28N 38°33' E 000°15'1511.4
2015-May-23 20:08N 38°47' E 000°22'4612.6
2015-May-23 16:27N 39°23' W 000°14'6 6.1
2015-May-23 15:32N 39°27' W 000°19'0 0.0
2015-May-23 14:32N 39°27' W 000°19'0 0.0
2015-May-23 13:32N 39°27' W 000°19'0 0.0
2015-May-23 12:32N 39°27' W 000°19'0 0.0
2015-May-23 11:32N 39°27' W 000°19'0 0.0
2015-May-23 10:32N 39°27' W 000°19'0 0.0
2015-May-23 09:32N 39°27' W 000°19'0 0.0
2015-May-23 08:32N 39°27' W 000°19'0 0.0
2015-May-23 07:32N 39°27' W 000°19'0 0.0
2015-May-23 06:32N 39°27' W 000°19'0 0.1
2015-May-23 05:34N 39°27' W 000°19'7 6.4
2015-May-23 04:33N 39°27' W 000°11'  
2015-May-20 22:04N 42°56' E 005°52'77 4.9
2015-May-20 06:18N 43°28' E 007°28'1212.1
2015-May-20 05:21N 43°40' E 007°27'3 4.4
2015-May-20 04:33N 43°43' E 007°25'0 0.0
2015-May-20 03:33N 43°43' E 007°25'0 0.0
2015-May-20 02:33N 43°43' E 007°25'0 0.0
2015-May-20 01:33N 43°43' E 007°25'0 0.0
2015-May-20 00:27N 43°43' E 007°25'0 0.0
2015-May-19 23:27N 43°43' E 007°25'0 0.0
2015-May-19 22:21N 43°43' E 007°25'0 0.0
2015-May-19 21:21N 43°43' E 007°25'0 0.0
2015-May-19 20:33N 43°43' E 007°25'0 0.0
2015-May-19 19:21N 43°43' E 007°25'0 0.0
2015-May-19 16:33N 43°43' E 007°25'0 0.0
2015-May-19 15:21N 43°43' E 007°25'0 0.0
2015-May-19 14:33N 43°43' E 007°25'0 0.0
2015-May-19 13:15N 43°43' E 007°25'0 0.0
2015-May-19 12:15N 43°43' E 007°25'0 0.0
2015-May-19 11:33N 43°43' E 007°25'0 0.0
2015-May-19 10:33N 43°43' E 007°25'0 0.0
2015-May-19 09:33N 43°43' E 007°25'0 0.0
2015-May-19 08:33N 43°43' E 007°25'0 0.0
2015-May-19 07:33N 43°43' E 007°25'0 0.0
2015-May-19 06:33N 43°43' E 007°25'0 0.0
2015-May-19 05:22N 43°43' E 007°25'7 3.8
2015-May-19 03:32N 43°36' E 007°27'3 2.8
2015-May-19 02:33N 43°36' E 007°24'3 3.0
2015-May-19 01:33N 43°34' E 007°21'3 2.6
2015-May-19 00:33N 43°32' E 007°19'3 3.3
2015-May-18 23:33N 43°35' E 007°18'3 3.1
2015-May-18 22:34N 43°38' E 007°17'4 3.8
2015-May-18 21:33N 43°42' E 007°17'0 0.0
2015-May-18 20:29N 43°42' E 007°17'0 0.0
2015-May-18 19:23N 43°42' E 007°17'0 0.0
2015-May-18 18:29N 43°42' E 007°17'0 0.0
2015-May-18 17:29N 43°42' E 007°17'0 0.0
2015-May-18 16:29N 43°42' E 007°17'0 0.0
2015-May-18 15:29N 43°42' E 007°17'0 0.0
2015-May-18 14:23N 43°42' E 007°17'0 0.0
2015-May-18 13:29N 43°42' E 007°17'0 0.0
2015-May-18 12:29N 43°42' E 007°17'0 0.0
2015-May-18 11:29N 43°42' E 007°17'0 0.0
2015-May-18 10:29N 43°42' E 007°17'0 0.0
2015-May-18 09:29N 43°42' E 007°17'0 0.0
2015-May-18 08:29N 43°42' E 007°17'0 0.0
2015-May-18 07:29N 43°42' E 007°17'0 0.0
2015-May-18 06:29N 43°42' E 007°17'0 0.0
2015-May-18 05:23N 43°42' E 007°17'3 3.1
2015-May-18 04:33N 43°39' E 007°18'6 5.9
2015-May-18 03:33N 43°34' E 007°23'4 3.6
2015-May-18 02:33N 43°31' E 007°23'4 4.2
2015-May-18 01:31N 43°27' E 007°20'5 4.6
2015-May-18 00:32N 43°26' E 007°14'4 4.4
2015-May-17 23:33N 43°24' E 007°08'4 3.9
2015-May-17 22:29N 43°24' E 007°03'6 6.1
2015-May-17 21:32N 43°30' E 006°60'3 1.3
2015-May-17 19:32N 43°32' E 007°01'0 0.0
2015-May-17 18:14N 43°32' E 007°01'0 0.0
2015-May-17 15:20N 43°32' E 007°01'0 0.0
2015-May-17 13:26N 43°32' E 007°01'0 0.0
2015-May-17 11:26N 43°32' E 007°01'0 0.0
2015-May-17 10:08N 43°32' E 007°01'0 0.0
2015-May-17 05:32N 43°32' E 007°01'9 9.3
2015-May-17 04:33N 43°29' E 007°13'5416.4
2015-May-17 01:15N 43°52' E 008°21'1216.9
2015-May-17 00:33N 43°58' E 008°35'1716.9
2015-May-16 23:33N 44°07' E 008°55'1716.5
2015-May-16 22:33N 44°15' E 009°15'5 2.4
2015-May-16 20:19N 44°20' E 009°14'0 0.0
2015-May-16 18:16N 44°20' E 009°14'0 0.0
2015-May-16 06:10N 44°20' E 009°14'0 0.0
2015-May-16 05:28N 44°20' E 009°14'3 3.0
2015-May-16 04:33N 44°18' E 009°17'1515.4
2015-May-16 03:33N 44°03' E 009°22'1616.1
2015-May-16 02:33N 43°47' E 009°26'1616.0
2015-May-16 01:33N 43°32' E 009°31'1616.0
2015-May-16 00:33N 43°16' E 009°35'3015.0
2015-May-15 22:33N 42°48' E 009°50'1915.9
2015-May-15 21:19N 42°39' E 010°14'2016.0
2015-May-15 20:05N 42°25' E 010°33'  

Dump ship's entire track history